Gazi — 9HA2542 — position and weather

sailwx.info

Track history (hours):
 
Tides and Currents Weather Stations Pressure Air Temp Water Temp Dewpoint Dewpoint Depression Visibility Wind Speed Wind Dir Waves Ship Positions

Gazi

Last reported at 2018-Feb-22 15:14 UTC. Time now 2018-Feb-24 18:08 UTC.
Position N 23°49' E 119°51'.

Length 153 m; draft 6 m.

Type: Other ship. MMSI: 248841000.

Date/timePositionNaut miles runAvg speedWind from/ knotsBaromVisibWave heightAir tempDewpointWater temp
2018-Feb-22 15:14N 23°49' E 119°51'2 8.0
2018-Feb-22 15:00N 23°48' E 119°50'4 8.0
2018-Feb-22 14:30N 23°44' E 119°49'4 8.0
2018-Feb-22 14:00N 23°40' E 119°49'4 7.6
2018-Feb-22 13:29N 23°36' E 119°49'3 6.8
2018-Feb-22 13:00N 23°33' E 119°49'3 6.5
2018-Feb-22 12:30N 23°29' E 119°49'3 6.0
2018-Feb-22 12:00N 23°26' E 119°49'3 5.9
2018-Feb-22 11:30N 23°24' E 119°48'22 5.4
2018-Feb-22 07:23N 23°01' E 119°46'4 8.6
2018-Feb-22 06:54N 22°57' E 119°45'  
2018-Feb-16 01:09N 01°24' E 104°24'1 6.8
2018-Feb-16 01:00N 01°23' E 104°23'3 6.7
2018-Feb-16 00:30N 01°21' E 104°21'7 2.6
2018-Feb-15 21:43N 01°19' E 104°14'0 0.0
2018-Feb-15 21:19N 01°19' E 104°14'0 0.1
2018-Feb-15 20:43N 01°19' E 104°14'0 0.3
2018-Feb-15 20:29N 01°19' E 104°14'0 0.1
2018-Feb-15 20:00N 01°19' E 104°14'0 0.1
2018-Feb-15 17:36N 01°19' E 104°14'0 0.0
2018-Feb-15 17:29N 01°19' E 104°14'0 0.0
2018-Feb-15 16:01N 01°19' E 104°14'0 0.1
2018-Feb-15 15:56N 01°19' E 104°14'8 0.9
2018-Feb-15 06:25N 01°15' E 104°06'513.1
2018-Feb-15 06:00N 01°15' E 104°01'612.2
2018-Feb-15 05:29N 01°13' E 103°55'5 9.8
2018-Feb-15 05:00N 01°12' E 103°51'3 6.6
2018-Feb-15 04:31N 01°13' E 103°48'2 3.3
2018-Feb-15 04:00N 01°14' E 103°49'0 0.1
2018-Feb-15 03:30N 01°14' E 103°49'0 0.3
2018-Feb-15 03:00N 01°14' E 103°49'0 0.2
2018-Feb-15 02:30N 01°14' E 103°49'0 0.0
2018-Feb-15 02:00N 01°14' E 103°49'0 0.1
2018-Feb-15 01:30N 01°14' E 103°49'0 0.3
2018-Feb-15 01:00N 01°14' E 103°49'0 0.0
2018-Feb-15 00:30N 01°14' E 103°49'0 0.2
2018-Feb-15 00:00N 01°14' E 103°49'0 0.1
2018-Feb-14 23:30N 01°14' E 103°49'0 0.1
2018-Feb-14 23:00N 01°14' E 103°49'0 0.1
2018-Feb-14 22:30N 01°14' E 103°49'0 0.4
2018-Feb-14 22:00N 01°14' E 103°49'0 0.2
2018-Feb-14 21:30N 01°14' E 103°49'0 0.2
2018-Feb-14 21:00N 01°14' E 103°49'0 0.3
2018-Feb-14 20:30N 01°14' E 103°49'0 0.2
2018-Feb-14 20:00N 01°14' E 103°49'0 0.1
2018-Feb-14 19:29N 01°14' E 103°49'0 0.2
2018-Feb-14 18:58N 01°14' E 103°49'0 0.1
2018-Feb-14 18:30N 01°14' E 103°49'0 0.0
2018-Feb-14 18:00N 01°14' E 103°49'0 0.0
2018-Feb-14 17:30N 01°14' E 103°49'0 0.2
2018-Feb-14 17:00N 01°14' E 103°49'0 0.2
2018-Feb-14 16:30N 01°14' E 103°49'1 1.8
2018-Feb-14 16:00N 01°13' E 103°49'0 0.1
2018-Feb-14 15:30N 01°13' E 103°49'0 0.2
2018-Feb-14 15:00N 01°13' E 103°49'0 0.4
2018-Feb-14 14:30N 01°13' E 103°49'1 1.6
2018-Feb-14 14:00N 01°13' E 103°48'3 5.7
2018-Feb-14 13:30N 01°15' E 103°46'3 6.9
2018-Feb-14 13:00N 01°14' E 103°43'4 6.9
2018-Feb-14 12:29N 01°12' E 103°39'3 6.7
2018-Feb-14 12:00N 01°13' E 103°36'3 6.7
2018-Feb-14 11:30N 01°12' E 103°33'3 6.8
2018-Feb-14 11:00N 01°11' E 103°30'4 7.0
2018-Feb-14 10:30N 01°12' E 103°26'5 8.9
2018-Feb-14 09:59N 01°14' E 103°22'  
Track history (hours):
 
Tides and Currents Weather Stations Pressure Air Temp Water Temp Dewpoint Dewpoint Depression Visibility Wind Speed Wind Dir Waves Ship Positions

Gazi

Last reported at 2018-Feb-22 15:14 UTC. Time now 2018-Feb-24 18:08 UTC.
Position N 23°49' E 119°51'.

Length 153 m; draft 6 m.

Type: Other ship. MMSI: 248841000.

Date/timePositionNaut miles runAvg speedWind from/ knotsBaromVisibWave heightAir tempDewpointWater temp
2018-Feb-22 15:14N 23°49' E 119°51'2 8.0
2018-Feb-22 15:00N 23°48' E 119°50'4 8.0
2018-Feb-22 14:30N 23°44' E 119°49'4 8.0
2018-Feb-22 14:00N 23°40' E 119°49'4 7.6
2018-Feb-22 13:29N 23°36' E 119°49'3 6.8
2018-Feb-22 13:00N 23°33' E 119°49'3 6.5
2018-Feb-22 12:30N 23°29' E 119°49'3 6.0
2018-Feb-22 12:00N 23°26' E 119°49'3 5.9
2018-Feb-22 11:30N 23°24' E 119°48'22 5.4
2018-Feb-22 07:23N 23°01' E 119°46'4 8.6
2018-Feb-22 06:54N 22°57' E 119°45'  
2018-Feb-16 01:09N 01°24' E 104°24'1 6.8
2018-Feb-16 01:00N 01°23' E 104°23'3 6.7
2018-Feb-16 00:30N 01°21' E 104°21'7 2.6
2018-Feb-15 21:43N 01°19' E 104°14'0 0.0
2018-Feb-15 21:19N 01°19' E 104°14'0 0.1
2018-Feb-15 20:43N 01°19' E 104°14'0 0.3
2018-Feb-15 20:29N 01°19' E 104°14'0 0.1
2018-Feb-15 20:00N 01°19' E 104°14'0 0.1
2018-Feb-15 17:36N 01°19' E 104°14'0 0.0
2018-Feb-15 17:29N 01°19' E 104°14'0 0.0
2018-Feb-15 16:01N 01°19' E 104°14'0 0.1
2018-Feb-15 15:56N 01°19' E 104°14'8 0.9
2018-Feb-15 06:25N 01°15' E 104°06'513.1
2018-Feb-15 06:00N 01°15' E 104°01'612.2
2018-Feb-15 05:29N 01°13' E 103°55'5 9.8
2018-Feb-15 05:00N 01°12' E 103°51'3 6.6
2018-Feb-15 04:31N 01°13' E 103°48'2 3.3
2018-Feb-15 04:00N 01°14' E 103°49'0 0.1
2018-Feb-15 03:30N 01°14' E 103°49'0 0.3
2018-Feb-15 03:00N 01°14' E 103°49'0 0.2
2018-Feb-15 02:30N 01°14' E 103°49'0 0.0
2018-Feb-15 02:00N 01°14' E 103°49'0 0.1
2018-Feb-15 01:30N 01°14' E 103°49'0 0.3
2018-Feb-15 01:00N 01°14' E 103°49'0 0.0
2018-Feb-15 00:30N 01°14' E 103°49'0 0.2
2018-Feb-15 00:00N 01°14' E 103°49'0 0.1
2018-Feb-14 23:30N 01°14' E 103°49'0 0.1
2018-Feb-14 23:00N 01°14' E 103°49'0 0.1
2018-Feb-14 22:30N 01°14' E 103°49'0 0.4
2018-Feb-14 22:00N 01°14' E 103°49'0 0.2
2018-Feb-14 21:30N 01°14' E 103°49'0 0.2
2018-Feb-14 21:00N 01°14' E 103°49'0 0.3
2018-Feb-14 20:30N 01°14' E 103°49'0 0.2
2018-Feb-14 20:00N 01°14' E 103°49'0 0.1
2018-Feb-14 19:29N 01°14' E 103°49'0 0.2
2018-Feb-14 18:58N 01°14' E 103°49'0 0.1
2018-Feb-14 18:30N 01°14' E 103°49'0 0.0
2018-Feb-14 18:00N 01°14' E 103°49'0 0.0
2018-Feb-14 17:30N 01°14' E 103°49'0 0.2
2018-Feb-14 17:00N 01°14' E 103°49'0 0.2
2018-Feb-14 16:30N 01°14' E 103°49'1 1.8
2018-Feb-14 16:00N 01°13' E 103°49'0 0.1
2018-Feb-14 15:30N 01°13' E 103°49'0 0.2
2018-Feb-14 15:00N 01°13' E 103°49'0 0.4
2018-Feb-14 14:30N 01°13' E 103°49'1 1.6
2018-Feb-14 14:00N 01°13' E 103°48'3 5.7
2018-Feb-14 13:30N 01°15' E 103°46'3 6.9
2018-Feb-14 13:00N 01°14' E 103°43'4 6.9
2018-Feb-14 12:29N 01°12' E 103°39'3 6.7
2018-Feb-14 12:00N 01°13' E 103°36'3 6.7
2018-Feb-14 11:30N 01°12' E 103°33'3 6.8
2018-Feb-14 11:00N 01°11' E 103°30'4 7.0
2018-Feb-14 10:30N 01°12' E 103°26'5 8.9
2018-Feb-14 09:59N 01°14' E 103°22'  

Dump ship's entire track history